aviador You're here:

KMBY Decoded Metar

in
Report Time2017-12-17 00:15:00
UTC Time2017-12-17 00:27:44
Flight Rules vfr VFR
Wind200° at 09 kt
W.Decomp.*RWY 23: 7.8 kt HW 4.5 kt LCW
RWY 13: 3.1 kt HW 8.5 kt RCW
Visibility9999 m
Phenomena:N/A
Clouds:N/A
Expected CloudBase > 6,400 ft AGL from Temp-Dew spread
CeilingNone
Temp11°C
Dew Point-5°C (32% RH)
AAT5.1°C
QNH1015 hPa
Raw Report
KMBY 170015Z AUTO 20009KT 10SM CLR 11/M05 A2997 RMK AO2=

Extra information for KMBY:More info

Social comments